LIPS

Istrana Airport

Istrana, Italy
TAF LIPS 251700Z 2518/2603 09005KT CAVOK
Issued Valid From Valid To
Sep-25 @ 17:00 UTC
(2 hours ago)
Sep-25 @ 18:00 UTC
(an hour ago)
Sep-26 @ 03:00 UTC
(in 8 hours)
Sep-25 @ 18:00 to Sep-26 @ 03:00
TAF LIPS 251700Z 2518/2603 09005KT CAVOK
Wind Visibility Clouds Conditions
90° at 5 knots 10,000+ meters
  • No significant clouds
TAF LIPS 251700Z 2518/2603 09005KT CAVOK
Issued Sep-25 @ 17:00 UTC
(2 hours ago)
Valid From Sep-25 @ 18:00 UTC
(an hour ago)
Valid To Sep-26 @ 03:00 UTC
(in 8 hours)
Sep-25 @ 18:00 - Sep-26 @ 03:00
Wind Visibility
90° at 5 knots 10,000+ meters
Clouds
  • No significant clouds
Conditions